.
WxDataArchive / Data Records for 2007-03-24
2007-03-23 March 2007 2007-03-25

Data Records for Saturday, 24 March 2007

Time	Temp	Chill	HIndex	Humid	Dewpt	 Wind 	HiWind	WindDir	Rain 	Barom 
-----	----	-----	------	-----	-----	------	------	-------	-----	----- 
00:00	44.5	44.5	44.5	97	43.7	1	3	112	0.00	30.106 
00:05	44.5	44.5	44.5	97	43.7	1	3	112	0.00	30.107 
00:10	44.5	44.5	44.5	97	43.7	0	2	112	0.00	30.107 
00:15	44.5	44.5	44.5	97	43.7	2	4	90	0.00	30.103 
00:20	44.5	44.5	44.5	97	43.7	1	3	90	0.00	30.101 
00:25	44.5	44.5	44.5	97	43.7	1	3	90	0.00	30.100 
00:30	44.6	44.6	44.6	97	43.8	1	3	90	0.00	30.100 
00:35	44.6	44.6	44.6	97	43.8	1	2	90	0.00	30.100 
00:40	44.6	44.6	44.6	97	43.8	1	2	90	0.00	30.100 
00:45	44.6	44.6	44.6	97	43.8	1	3	90	0.00	30.098 
00:50	44.6	44.6	44.6	97	43.8	0	2	90	0.00	30.098 
00:55	44.6	44.6	44.6	97	43.8	1	2	90	0.00	30.096 
01:00	44.6	44.6	44.6	97	43.8	1	2	90	0.00	30.095 
01:05	44.6	44.6	44.6	97	43.8	0	1	90	0.00	30.095 
01:10	44.6	44.6	44.6	97	43.8	0	2	90	0.00	30.095 
01:15	44.6	44.6	44.6	97	43.8	1	3	90	0.00	30.093 
01:20	44.6	44.6	44.6	97	43.8	1	3	90	0.00	30.092 
01:25	44.6	44.6	44.6	97	43.8	1	2	90	0.00	30.091 
01:30	44.6	44.6	44.6	97	43.8	1	2	90	0.00	30.092 
01:35	44.5	44.5	44.5	97	43.7	1	2	90	0.00	30.094 
01:40	44.5	44.5	44.5	97	43.7	2	4	112	0.00	30.092 
01:45	44.5	44.5	44.5	97	43.7	0	1	112	0.00	30.088 
01:50	44.5	44.5	44.5	97	43.7	1	3	112	0.00	30.086 
01:55	44.5	44.5	44.5	97	43.7	1	2	112	0.00	30.086 
02:00	44.5	44.5	44.5	98	44.0	0	1	112	0.00	30.086 
02:05	44.5	44.5	44.5	98	44.0	0	2	112	0.00	30.086 
02:10	44.5	44.5	44.5	98	44.0	0	2	112	0.00	30.084 
02:15	44.6	44.6	44.6	98	44.1	1	2	112	0.00	30.082 
02:20	44.6	44.6	44.6	98	44.1	1	2	112	0.00	30.081 
02:25	44.6	44.6	44.6	98	44.1	0	1	112	0.00	30.082 
02:30	44.6	44.6	44.6	98	44.1	0	2	112	0.00	30.083 
02:35	44.6	44.6	44.6	98	44.1	0	2	112	0.00	30.084 
02:40	44.6	44.6	44.6	98	44.1	0	1	112	0.00	30.083 
02:45	44.6	44.6	44.6	98	44.1	0	1	112	0.00	30.082 
02:50	44.6	44.6	44.6	98	44.1	1	3	90	0.00	30.080 
02:55	44.6	44.6	44.6	98	44.1	0	2	90	0.00	30.081 
03:00	44.6	44.6	44.6	98	44.1	0	1	90	0.00	30.082 
03:05	44.6	44.6	44.6	98	44.1	0	1	90	0.00	30.083 
03:10	44.6	44.6	44.6	98	44.1	1	2	90	0.00	30.083 
03:15	44.6	44.6	44.6	98	44.1	0	1	90	0.00	30.085 
03:20	44.6	44.6	44.6	98	44.1	0	0	---	0.00	30.084 
03:25	44.6	44.6	44.6	98	44.1	0	1	90	0.00	30.083 
03:30	44.6	44.6	44.6	98	44.1	0	2	90	0.00	30.083 
03:35	44.8	44.8	44.8	98	44.3	0	1	90	0.00	30.083 
03:40	44.8	44.8	44.8	98	44.3	1	1	90	0.01	30.082 
03:45	44.8	44.8	44.8	98	44.3	0	3	90	0.06	30.082 
03:50	44.8	44.8	44.8	98	44.3	0	2	90	0.02	30.083 
03:55	44.8	44.8	44.8	98	44.3	0	1	90	0.00	30.083 
04:00	44.8	44.8	44.8	98	44.3	0	1	90	0.00	30.082 
04:05	44.8	44.8	44.8	98	44.3	0	0	---	0.00	30.081 
04:10	44.8	44.8	44.8	98	44.3	0	2	90	0.00	30.079 
04:15	44.9	44.9	44.9	98	44.4	1	2	90	0.00	30.071 
04:20	44.9	44.9	44.9	98	44.4	0	1	90	0.00	30.075 
04:25	44.9	44.9	44.9	98	44.4	0	1	90	0.00	30.075 
04:30	44.9	44.9	44.9	98	44.4	0	1	90	0.00	30.075 
04:35	44.9	44.9	44.9	98	44.4	0	1	90	0.00	30.077 
04:40	44.9	44.9	44.9	98	44.4	0	1	90	0.00	30.079 
04:45	45.1	45.1	45.1	98	44.6	0	0	---	0.00	30.080 
04:50	45.1	45.1	45.1	98	44.6	0	0	---	0.00	30.080 
04:55	45.1	45.1	45.1	98	44.6	0	1	90	0.00	30.081 
05:00	45.1	45.1	45.1	98	44.6	0	1	90	0.00	30.080 
05:05	45.2	45.2	45.2	98	44.7	0	0	---	0.00	30.083 
05:10	45.2	45.2	45.2	98	44.7	0	1	90	0.00	30.082 
05:15	45.4	45.4	45.4	98	44.9	0	0	---	0.00	30.084 
05:20	45.4	45.4	45.4	98	44.9	0	1	90	0.00	30.084 
05:25	45.5	45.5	45.5	98	45.0	0	1	90	0.00	30.082 
05:30	45.5	45.5	45.5	98	45.0	0	1	90	0.00	30.084 
05:35	45.5	45.5	45.5	98	45.0	0	1	90	0.00	30.087 
05:40	45.7	45.7	45.7	98	45.2	0	1	90	0.00	30.088 
05:45	45.7	45.7	45.7	98	45.2	0	0	---	0.00	30.088 
05:50	45.7	45.7	45.7	98	45.2	0	1	90	0.00	30.088 
05:55	45.7	45.7	45.7	98	45.2	0	1	90	0.00	30.090 
06:00	45.7	45.7	45.7	98	45.2	0	0	---	0.01	30.091 
06:05	45.7	45.7	45.7	98	45.2	0	1	90	0.02	30.094 
06:10	45.8	45.8	45.8	98	45.3	0	0	---	0.01	30.093 
06:15	45.8	45.8	45.8	98	45.3	0	1	90	0.00	30.095 
06:20	45.8	45.8	45.8	98	45.3	0	0	---	0.00	30.096 
06:25	46.0	46.0	46.0	98	45.5	0	0	---	0.00	30.097 
06:30	46.0	46.0	46.0	98	45.5	0	0	---	0.00	30.098 
06:35	46.1	46.1	46.1	98	45.6	0	1	90	0.00	30.100 
06:40	46.1	46.1	46.1	98	45.6	0	0	---	0.00	30.100 
06:45	46.1	46.1	46.1	98	45.6	0	1	90	0.00	30.101 
06:50	46.2	46.2	46.2	98	45.7	0	1	90	0.00	30.101 
06:55	46.2	46.2	46.2	98	45.7	0	0	---	0.00	30.104 
07:00	46.4	46.4	46.4	98	45.9	0	0	---	0.00	30.104 
07:05	46.4	46.4	46.4	98	45.9	0	0	---	0.00	30.108 
07:10	46.5	46.5	46.5	98	46.0	0	0	---	0.00	30.109 
07:15	46.5	46.5	46.5	98	46.0	0	0	---	0.00	30.111 
07:20	46.7	46.7	46.7	98	46.2	0	0	---	0.01	30.112 
07:25	46.8	46.8	46.8	98	46.3	0	0	---	0.01	30.112 
07:30	47.0	47.0	47.0	98	46.5	0	1	90	0.00	30.110 
07:35	47.1	47.1	47.1	98	46.6	0	1	90	0.01	30.110 
07:40	47.4	47.4	47.4	99	47.1	0	0	---	0.00	30.112 
07:45	47.7	47.7	47.7	99	47.4	0	0	---	0.00	30.113 
07:50	48.0	48.0	48.0	99	47.7	0	0	---	0.00	30.113 
07:55	48.3	48.3	48.3	99	48.0	0	1	90	0.00	30.115 
08:00	48.6	48.6	48.6	99	48.3	0	1	90	0.00	30.117 
08:05	49.1	49.1	49.1	99	48.8	0	1	90	0.00	30.121 
08:10	49.4	49.4	49.4	99	49.1	0	0	---	0.00	30.122 
08:15	49.8	49.8	49.8	99	49.5	0	1	90	0.00	30.124 
08:20	50.4	50.4	50.4	99	50.1	0	2	90	0.00	30.125 
08:25	51.1	51.1	51.1	99	50.8	1	3	225	0.00	30.126 
08:30	51.9	51.9	51.9	99	51.6	1	2	248	0.00	30.126 
08:35	52.6	52.6	52.6	100	52.6	1	2	248	0.00	30.124 
08:40	53.2	53.2	53.2	100	53.2	1	5	248	0.00	30.123 
08:45	53.8	53.8	53.8	100	53.8	2	4	248	0.00	30.121 
08:50	54.7	54.7	54.7	100	54.7	3	6	248	0.00	30.114 
08:55	55.3	55.3	55.3	100	55.3	2	6	248	0.00	30.117 
09:00	55.7	55.7	55.7	100	55.7	2	5	248	0.00	30.118 
09:05	56.0	56.0	56.0	100	56.0	2	5	248	0.00	30.119 
09:10	56.5	56.5	56.5	100	56.5	2	7	248	0.00	30.121 
09:15	56.9	56.9	56.9	100	56.9	2	5	248	0.00	30.123 
09:20	57.0	57.0	57.0	100	57.0	2	7	248	0.00	30.129 
09:25	56.9	56.9	56.9	100	56.9	2	6	248	0.00	30.132 
09:30	56.9	56.9	56.9	100	56.9	2	5	248	0.00	30.131 
09:35	57.0	57.0	57.0	100	57.0	2	9	248	0.00	30.133 
09:40	57.2	57.2	57.2	100	57.2	2	5	248	0.00	30.134 
09:45	57.5	57.5	57.5	100	57.5	2	6	248	0.00	30.134 
09:50	57.8	57.8	57.8	100	57.8	2	6	248	0.00	30.134 
09:55	58.1	58.1	58.1	100	58.1	3	6	248	0.00	30.131 
10:00	58.6	58.6	58.6	100	58.6	2	5	248	0.00	30.132 
10:05	58.9	58.9	58.9	100	58.9	3	7	248	0.00	30.131 
10:10	59.2	59.2	59.2	100	59.2	3	9	248	0.00	30.127 
10:15	59.5	59.5	59.5	100	59.5	2	5	248	0.00	30.125 
10:20	59.9	59.9	59.9	100	59.9	2	5	248	0.00	30.134 
10:25	60.1	60.1	60.1	100	60.1	2	5	270	0.00	30.136 
10:30	59.9	59.9	59.9	100	59.9	2	5	248	0.00	30.135 
10:35	59.9	59.9	59.9	100	59.9	3	6	248	0.00	30.136 
10:40	59.9	59.9	59.9	100	59.9	3	5	270	0.00	30.137 
10:45	60.1	60.1	60.1	100	60.1	3	5	292	0.00	30.140 
10:50	60.2	60.2	60.2	100	60.2	3	7	270	0.00	30.141 
10:55	60.4	60.4	60.4	100	60.4	3	7	248	0.00	30.144 
11:00	60.5	60.5	60.5	100	60.5	2	6	270	0.00	30.147 
11:05	60.4	60.4	60.4	99	60.1	2	5	248	0.00	30.148 
11:10	60.4	60.4	60.4	99	60.1	2	5	248	0.00	30.149 
11:15	60.4	60.4	60.4	99	60.1	3	11	248	0.00	30.150 
11:20	60.4	60.4	60.4	99	60.1	3	7	248	0.00	30.151 
11:25	60.4	60.4	60.4	98	59.8	3	10	248	0.00	30.154 
11:30	60.5	60.5	60.5	98	59.9	4	11	248	0.00	30.153 
11:35	60.7	60.7	60.7	98	60.1	3	6	270	0.00	30.155 
11:40	60.7	60.7	60.7	97	59.8	4	10	248	0.00	30.150 
11:45	61.0	61.0	61.0	97	60.1	3	9	270	0.00	30.147 
11:50	61.2	61.2	61.2	97	60.3	3	6	248	0.00	30.148 
11:55	61.5	61.5	61.5	97	60.6	2	5	270	0.00	30.145 
12:00	61.8	61.8	61.8	96	60.6	2	6	270	0.00	30.146 
12:05	62.3	62.3	62.3	96	61.1	3	6	248	0.00	30.144 
12:10	62.6	62.6	62.6	95	61.1	2	8	270	0.00	30.144 
12:15	63.1	63.1	63.1	94	61.3	3	7	270	0.00	30.144 
12:20	63.4	63.4	63.4	91	60.7	3	6	270	0.00	30.144 
12:25	63.7	63.7	63.7	90	60.7	3	6	248	0.00	30.146 
12:30	63.9	63.9	63.9	89	60.6	3	6	270	0.00	30.148 
12:35	63.9	63.9	63.9	88	60.3	3	6	270	0.00	30.147 
12:40	63.9	63.9	63.9	88	60.3	3	5	270	0.00	30.147 
12:45	63.9	63.9	63.9	88	60.3	3	4	248	0.00	30.149 
12:50	63.9	63.9	63.9	88	60.3	2	7	270	0.00	30.156 
12:55	63.9	63.9	63.9	87	59.9	3	7	270	0.00	30.156 
13:00	63.9	63.9	63.9	88	60.3	2	5	270	0.00	30.153 
13:05	64.2	64.2	64.2	87	60.2	2	5	270	0.00	30.149 
13:10	64.2	64.2	64.2	87	60.2	2	6	270	0.00	30.155 
13:15	64.2	64.2	64.2	87	60.2	2	6	270	0.00	30.155 
13:20	64.2	64.2	64.2	86	59.9	2	4	248	0.00	30.156 
13:25	64.2	64.2	64.2	86	59.9	3	5	248	0.00	30.158 
13:30	64.2	64.2	64.2	85	59.6	3	5	270	0.00	30.159 
13:35	64.2	64.2	64.2	86	59.9	2	5	248	0.00	30.160 
13:40	64.3	64.3	64.3	86	60.0	3	7	270	0.00	30.160 
13:45	64.7	64.7	64.7	86	60.4	2	6	292	0.00	30.159 
13:50	65.0	65.0	65.0	85	60.4	2	5	270	0.00	30.159 
13:55	65.5	65.5	65.5	84	60.5	2	4	270	0.00	30.159 
14:00	65.5	65.5	65.5	84	60.5	2	5	315	0.00	30.158 
14:05	65.2	65.2	65.2	83	59.9	2	6	338	0.00	30.163 
14:10	65.0	65.0	65.0	84	60.0	3	6	248	0.00	30.163 
14:15	65.0	65.0	65.0	84	60.0	2	5	292	0.00	30.163 
14:20	65.2	65.2	65.2	84	60.2	2	5	270	0.00	30.162 
14:25	65.3	65.3	65.3	84	60.3	2	5	270	0.00	30.164 
14:30	65.2	65.2	65.2	84	60.2	2	5	292	0.00	30.165 
14:35	65.2	65.2	65.2	84	60.2	2	6	248	0.00	30.163 
14:40	65.2	65.2	65.2	84	60.2	2	5	248	0.00	30.164 
14:45	65.5	65.5	65.5	84	60.5	2	5	270	0.00	30.162 
14:50	66.0	66.0	66.0	83	60.7	2	5	270	0.00	30.161 
14:55	66.6	66.6	66.6	83	61.3	2	9	270	0.00	30.161 
15:00	66.9	66.9	66.9	81	60.9	2	5	248	0.00	30.162 
15:05	66.9	66.9	66.9	80	60.5	2	4	248	0.00	30.167 
15:10	66.8	66.8	66.8	80	60.4	2	4	270	0.00	30.169 
15:15	66.8	66.8	66.8	80	60.4	2	5	270	0.00	30.167 
15:20	66.9	66.9	66.9	80	60.5	2	9	270	0.00	30.166 
15:25	66.9	66.9	66.9	80	60.5	2	7	270	0.00	30.169 
15:30	66.8	66.8	66.8	79	60.1	2	6	315	0.00	30.170 
15:35	66.3	66.3	66.3	79	59.6	1	3	338	0.00	30.174 
15:40	66.0	66.0	66.0	81	60.0	1	4	292	0.00	30.174 
15:45	65.8	65.8	65.8	80	59.5	1	4	270	0.00	30.174 
15:50	66.0	66.0	66.0	80	59.6	1	3	338	0.00	30.175 
15:55	66.1	66.1	66.1	79	59.4	2	7	270	0.00	30.175 
16:00	66.4	66.4	66.4	77	59.0	1	4	270	0.00	30.175 
16:05	66.4	66.4	66.4	77	59.0	1	3	292	0.00	30.176 
16:10	66.4	66.4	66.4	77	59.0	1	4	292	0.00	30.176 
16:15	66.6	66.6	66.6	76	58.8	1	4	292	0.00	30.174 
16:20	66.9	66.9	66.9	76	59.1	1	4	292	0.00	30.174 
16:25	67.1	67.1	67.1	75	58.9	1	4	270	0.00	30.174 
16:30	66.8	66.8	66.8	75	58.6	1	4	315	0.00	30.179 
16:35	66.8	66.8	66.8	76	59.0	1	2	338	0.00	30.179 
16:40	66.6	66.6	66.6	74	58.0	2	6	270	0.00	30.187 
16:45	66.4	66.4	66.4	75	58.2	1	4	338	0.00	30.190 
16:50	66.3	66.3	66.3	75	58.1	1	3	0	0.00	30.190 
16:55	66.1	66.1	66.1	76	58.3	1	4	0	0.00	30.191 
17:00	66.0	66.0	66.0	75	57.8	1	3	338	0.00	30.192 
17:05	65.8	65.8	65.8	76	58.0	1	3	315	0.00	30.192 
17:10	65.8	65.8	65.8	76	58.0	1	4	292	0.00	30.191 
17:15	65.6	65.6	65.6	75	57.5	1	3	338	0.00	30.196 
17:20	65.6	65.6	65.6	74	57.1	1	3	248	0.00	30.194 
17:25	65.5	65.5	65.5	74	57.0	1	4	338	0.00	30.190 
17:30	65.5	65.5	65.5	75	57.4	0	2	338	0.00	30.192 
17:35	65.5	65.5	65.5	75	57.4	1	4	270	0.00	30.196 
17:40	65.5	65.5	65.5	75	57.4	0	2	292	0.00	30.198 
17:45	65.5	65.5	65.5	75	57.4	0	4	292	0.00	30.199 
17:50	65.3	65.3	65.3	75	57.2	0	2	270	0.00	30.199 
17:55	65.2	65.2	65.2	75	57.1	0	1	270	0.00	30.201 
18:00	65.0	65.0	65.0	75	56.9	0	1	270	0.00	30.200 
18:05	64.8	64.8	64.8	75	56.7	0	1	270	0.00	30.199 
18:10	64.8	64.8	64.8	76	57.0	0	1	270	0.00	30.197 
18:15	64.7	64.7	64.7	75	56.6	0	1	270	0.00	30.195 
18:20	64.5	64.5	64.5	75	56.4	0	1	270	0.00	30.194 
18:25	64.3	64.3	64.3	76	56.6	0	0	---	0.00	30.193 
18:30	64.0	64.0	64.0	77	56.6	0	0	---	0.00	30.193 
18:35	63.9	63.9	63.9	77	56.5	0	0	---	0.00	30.190 
18:40	63.4	63.4	63.4	79	56.8	0	0	---	0.00	30.191 
18:45	63.1	63.1	63.1	79	56.5	0	0	---	0.00	30.190 
18:50	62.6	62.6	62.6	79	56.0	0	0	---	0.00	30.190 
18:55	62.3	62.3	62.3	80	56.0	0	0	---	0.00	30.192 
19:00	62.0	62.0	62.0	81	56.1	0	0	---	0.00	30.193 
19:05	61.6	61.6	61.6	82	56.0	0	0	---	0.00	30.194 
19:10	61.2	61.2	61.2	83	56.0	0	0	---	0.00	30.201 
19:15	60.7	60.7	60.7	83	55.5	0	1	270	0.00	30.193 
19:20	60.4	60.4	60.4	84	55.5	0	0	---	0.00	30.192 
19:25	60.1	60.1	60.1	85	55.6	0	0	---	0.00	30.190 
19:30	59.8	59.8	59.8	86	55.6	0	0	---	0.00	30.193 
19:35	59.6	59.6	59.6	86	55.4	0	0	---	0.00	30.200 
19:40	59.5	59.5	59.5	87	55.6	0	0	---	0.00	30.200 
19:45	59.3	59.3	59.3	87	55.4	0	0	---	0.00	30.198 
19:50	59.2	59.2	59.2	87	55.3	0	0	---	0.00	30.196 
19:55	59.0	59.0	59.0	88	55.4	0	1	270	0.00	30.194 
20:00	58.7	58.7	58.7	88	55.2	0	0	---	0.00	30.193 
20:05	58.4	58.4	58.4	88	54.9	0	0	---	0.00	30.186 
20:10	58.3	58.3	58.3	89	55.1	0	0	---	0.00	30.188 
20:15	58.1	58.1	58.1	89	54.9	0	0	---	0.00	30.188 
20:20	58.0	58.0	58.0	90	55.1	0	0	---	0.00	30.192 
20:25	57.6	57.6	57.6	90	54.7	0	0	---	0.00	30.203 
20:30	57.5	57.5	57.5	90	54.6	0	0	---	0.00	30.211 
20:35	57.2	57.2	57.2	91	54.6	0	0	---	0.00	30.220 
20:40	57.0	57.0	57.0	91	54.4	0	0	---	0.00	30.222 
20:45	56.7	56.7	56.7	91	54.1	0	0	---	0.00	30.223 
20:50	56.5	56.5	56.5	91	53.9	0	0	---	0.00	30.226 
20:55	56.2	56.2	56.2	91	53.6	0	0	---	0.00	30.227 
21:00	56.0	56.0	56.0	92	53.7	0	1	270	0.00	30.222 
21:05	55.9	55.9	55.9	92	53.6	0	0	---	0.00	30.224 
21:10	55.6	55.6	55.6	93	53.6	0	0	---	0.00	30.228 
21:15	55.4	55.4	55.4	93	53.4	0	0	---	0.00	30.226 
21:20	55.1	55.1	55.1	93	53.1	0	0	---	0.00	30.232 
21:25	55.1	55.1	55.1	93	53.1	0	0	---	0.00	30.234 
21:30	55.1	55.1	55.1	94	53.4	0	0	---	0.00	30.235 
21:35	55.0	55.0	55.0	94	53.3	0	0	---	0.00	30.235 
21:40	55.0	55.0	55.0	94	53.3	0	0	---	0.00	30.235 
21:45	55.0	55.0	55.0	95	53.6	0	0	---	0.00	30.235 
21:50	54.8	54.8	54.8	95	53.4	0	0	---	0.00	30.234 
21:55	54.7	54.7	54.7	95	53.3	0	0	---	0.00	30.231 
22:00	54.5	54.5	54.5	95	53.1	0	1	270	0.00	30.224 
22:05	54.4	54.4	54.4	95	53.0	0	0	---	0.00	30.228 
22:10	54.1	54.1	54.1	95	52.7	0	0	---	0.00	30.227 
22:15	53.9	53.9	53.9	95	52.5	0	0	---	0.00	30.234 
22:20	53.9	53.9	53.9	95	52.5	0	0	---	0.00	30.234 
22:25	53.8	53.8	53.8	95	52.4	0	0	---	0.00	30.235 
22:30	53.6	53.6	53.6	95	52.2	0	0	---	0.00	30.237 
22:35	53.8	53.8	53.8	96	52.7	0	0	---	0.00	30.240 
22:40	53.8	53.8	53.8	96	52.7	0	0	---	0.00	30.247 
22:45	53.6	53.6	53.6	96	52.5	0	0	---	0.00	30.250 
22:50	53.3	53.3	53.3	96	52.2	0	0	---	0.00	30.250 
22:55	53.1	53.1	53.1	96	52.0	0	0	---	0.00	30.250 
23:00	52.9	52.9	52.9	96	51.8	0	0	---	0.00	30.251 
23:05	52.8	52.8	52.8	96	51.7	0	0	---	0.00	30.250 
23:10	52.5	52.5	52.5	96	51.4	0	0	---	0.00	30.252 
23:15	52.3	52.3	52.3	96	51.2	0	0	---	0.00	30.253 
23:20	52.3	52.3	52.3	96	51.2	0	0	---	0.00	30.253 
23:25	52.5	52.5	52.5	96	51.4	0	0	---	0.00	30.253 
23:30	52.5	52.5	52.5	96	51.4	0	0	---	0.00	30.254 
23:35	52.5	52.5	52.5	96	51.4	0	0	---	0.00	30.253 
23:40	52.3	52.3	52.3	96	51.2	0	0	---	0.00	30.253 
23:45	52.2	52.2	52.2	96	51.1	0	0	---	0.00	30.253 
23:50	52.2	52.2	52.2	96	51.1	0	0	---	0.00	30.254 
23:55	52.0	52.0	52.0	96	50.9	0	0	---	0.00	30.256 

CoCoRaHS
IN-AL-39
A2 Web Hosting
Creative Commons License
GoDaddy
Look for:

loaded 2017-12-12 01:45:22 • last modified 2010-11-18 10:43:29
Privacy PolicyDisclaimer
• wx.awcolley.com is powered by PmWiki v.2002016 •
• all content (unless otherwise noted) © 2017 A W Colley